sensor_id;sensor_type;location;lat;lon;timestamp;pressure;altitude;pressure_sealevel;temperature;humidity
79048;BME280;68680;50.764;6.120;2023-05-23T00:00:13;97091.69;;;-3.33;nan
79048;BME280;68680;50.764;6.120;2023-05-23T00:02:39;97091.69;;;-3.33;nan
79048;BME280;68680;50.764;6.120;2023-05-23T00:05:06;97086.88;;;-3.29;nan
79048;BME280;68680;50.764;6.120;2023-05-23T00:07:32;97084.06;;;-3.34;nan
79048;BME280;68680;50.764;6.120;2023-05-23T00:09:59;97080.47;;;-3.33;nan
79048;BME280;68680;50.764;6.120;2023-05-23T00:12:25;97090.69;;;-3.25;nan
79048;BME280;68680;50.764;6.120;2023-05-23T00:14:50;97091.28;;;-3.29;nan
79048;BME280;68680;50.764;6.120;2023-05-23T00:17:16;97093.09;;;-3.30;nan
79048;BME280;68680;50.764;6.120;2023-05-23T00:19:42;97092.72;;;-3.27;nan
79048;BME280;68680;50.764;6.120;2023-05-23T00:22:08;97085.28;;;-3.30;nan
79048;BME280;68680;50.764;6.120;2023-05-23T00:24:33;97085.28;;;-3.30;nan
79048;BME280;68680;50.764;6.120;2023-05-23T00:27:00;97086.72;;;-3.21;nan
79048;BME280;68680;50.764;6.120;2023-05-23T00:29:26;97088.53;;;-3.21;nan
79048;BME280;68680;50.764;6.120;2023-05-23T00:31:52;97095.31;;;-3.27;nan
79048;BME280;68680;50.764;6.120;2023-05-23T00:34:18;97090.88;;;-3.33;nan
79048;BME280;68680;50.764;6.120;2023-05-23T00:36:44;97085.25;;;-3.37;nan
79048;BME280;68680;50.764;6.120;2023-05-23T00:39:10;97100.47;;;-3.40;nan
79048;BME280;68680;50.764;6.120;2023-05-23T00:41:36;97096.47;;;-3.36;nan
79048;BME280;68680;50.764;6.120;2023-05-23T00:44:03;97100.97;;;-3.17;nan
79048;BME280;68680;50.764;6.120;2023-05-23T00:46:30;97086.88;;;-3.29;nan
79048;BME280;68680;50.764;6.120;2023-05-23T00:48:57;97089.28;;;-3.34;nan
79048;BME280;68680;50.764;6.120;2023-05-23T00:51:23;97096.84;;;-3.46;nan
79048;BME280;68680;50.764;6.120;2023-05-23T00:53:49;97081.59;;;-3.42;nan
79048;BME280;68680;50.764;6.120;2023-05-23T00:56:16;97081.38;;;-3.47;nan
79048;BME280;68680;50.764;6.120;2023-05-23T00:58:43;97091.19;;;-3.49;nan
79048;BME280;68680;50.764;6.120;2023-05-23T01:01:10;97089.97;;;-3.53;nan
79048;BME280;68680;50.764;6.120;2023-05-23T01:03:36;97099.94;;;-3.63;nan
79048;BME280;68680;50.764;6.120;2023-05-23T01:06:02;97089.13;;;-3.67;nan
79048;BME280;68680;50.764;6.120;2023-05-23T01:08:28;97101.53;;;-3.69;nan
79048;BME280;68680;50.764;6.120;2023-05-23T01:11:00;97101.88;;;-3.79;nan
79048;BME280;68680;50.764;6.120;2023-05-23T01:13:41;97105.84;;;-3.83;nan
79048;BME280;68680;50.764;6.120;2023-05-23T01:16:16;97108.44;;;-3.83;nan
79048;BME280;68680;50.764;6.120;2023-05-23T01:18:50;97108.22;;;-3.88;nan
79048;BME280;68680;50.764;6.120;2023-05-23T01:21:20;97108.38;;;-3.89;nan
79048;BME280;68680;50.764;6.120;2023-05-23T01:24:28;97105.38;;;-3.93;nan
79048;BME280;68680;50.764;6.120;2023-05-23T01:27:07;97107.00;;;-3.92;nan
79048;BME280;68680;50.764;6.120;2023-05-23T01:29:41;97106.56;;;-3.95;nan
79048;BME280;68680;50.764;6.120;2023-05-23T01:32:11;97110.88;;;-4.09;nan
79048;BME280;68680;50.764;6.120;2023-05-23T01:34:40;97111.75;;;-3.95;nan
79048;BME280;68680;50.764;6.120;2023-05-23T01:37:09;97108.97;;;-3.94;nan
79048;BME280;68680;50.764;6.120;2023-05-23T01:39:35;97110.94;;;-3.96;nan
79048;BME280;68680;50.764;6.120;2023-05-23T01:42:01;97112.97;;;-3.98;nan
79048;BME280;68680;50.764;6.120;2023-05-23T01:44:28;97117.31;;;-4.05;nan
79048;BME280;68680;50.764;6.120;2023-05-23T01:46:55;97115.69;;;-4.06;nan
79048;BME280;68680;50.764;6.120;2023-05-23T01:49:23;97124.59;;;-3.94;nan
79048;BME280;68680;50.764;6.120;2023-05-23T01:51:49;97123.41;;;-3.91;nan
79048;BME280;68680;50.764;6.120;2023-05-23T01:54:16;97123.47;;;-3.85;nan
79048;BME280;68680;50.764;6.120;2023-05-23T01:56:43;97124.63;;;-3.87;nan
79048;BME280;68680;50.764;6.120;2023-05-23T01:59:09;97138.69;;;-3.82;nan
79048;BME280;68680;50.764;6.120;2023-05-23T02:01:37;97130.56;;;-4.00;nan
79048;BME280;68680;50.764;6.120;2023-05-23T02:04:04;97138.81;;;-3.90;nan
79048;BME280;68680;50.764;6.120;2023-05-23T02:06:30;97133.38;;;-3.95;nan
79048;BME280;68680;50.764;6.120;2023-05-23T02:08:56;97139.75;;;-4.04;nan
79048;BME280;68680;50.764;6.120;2023-05-23T02:11:21;97132.06;;;-4.12;nan
79048;BME280;68680;50.764;6.120;2023-05-23T02:13:47;97133.03;;;-4.13;nan
79048;BME280;68680;50.764;6.120;2023-05-23T02:16:13;97133.69;;;-4.11;nan
79048;BME280;68680;50.764;6.120;2023-05-23T02:18:39;97139.50;;;-4.09;nan
79048;BME280;68680;50.764;6.120;2023-05-23T02:21:06;97140.84;;;-4.13;nan
79048;BME280;68680;50.764;6.120;2023-05-23T02:23:32;97142.38;;;-4.25;nan
79048;BME280;68680;50.764;6.120;2023-05-23T02:25:57;97139.00;;;-4.19;nan
79048;BME280;68680;50.764;6.120;2023-05-23T02:28:23;97139.91;;;-4.33;nan
79048;BME280;68680;50.764;6.120;2023-05-23T02:30:49;97138.66;;;-4.37;nan
79048;BME280;68680;50.764;6.120;2023-05-23T02:33:15;97145.91;;;-4.33;nan
79048;BME280;68680;50.764;6.120;2023-05-23T02:35:40;97151.91;;;-4.32;nan
79048;BME280;68680;50.764;6.120;2023-05-23T02:38:07;97151.06;;;-4.39;nan
79048;BME280;68680;50.764;6.120;2023-05-23T02:40:33;97154.63;;;-4.40;nan
79048;BME280;68680;50.764;6.120;2023-05-23T02:42:59;97153.03;;;-4.41;nan
79048;BME280;68680;50.764;6.120;2023-05-23T02:45:25;97147.75;;;-4.48;nan
79048;BME280;68680;50.764;6.120;2023-05-23T02:47:50;97152.53;;;-4.51;nan
79048;BME280;68680;50.764;6.120;2023-05-23T02:50:16;97157.00;;;-4.45;nan
79048;BME280;68680;50.764;6.120;2023-05-23T02:52:42;97162.19;;;-4.45;nan
79048;BME280;68680;50.764;6.120;2023-05-23T02:55:09;97154.22;;;-4.44;nan
79048;BME280;68680;50.764;6.120;2023-05-23T02:57:35;97155.38;;;-4.46;nan
79048;BME280;68680;50.764;6.120;2023-05-23T03:00:01;97162.59;;;-4.48;nan
79048;BME280;68680;50.764;6.120;2023-05-23T03:02:27;97156.69;;;-4.57;nan
79048;BME280;68680;50.764;6.120;2023-05-23T03:04:53;97156.69;;;-4.57;nan
79048;BME280;68680;50.764;6.120;2023-05-23T03:07:18;97155.75;;;-4.49;nan
79048;BME280;68680;50.764;6.120;2023-05-23T03:09:44;97164.16;;;-4.47;nan
79048;BME280;68680;50.764;6.120;2023-05-23T03:12:11;97168.53;;;-4.54;nan
79048;BME280;68680;50.764;6.120;2023-05-23T03:14:37;97160.44;;;-4.60;nan
79048;BME280;68680;50.764;6.120;2023-05-23T03:17:03;97162.78;;;-4.65;nan
79048;BME280;68680;50.764;6.120;2023-05-23T03:19:29;97170.50;;;-4.57;nan
79048;BME280;68680;50.764;6.120;2023-05-23T03:21:54;97164.78;;;-4.45;nan
79048;BME280;68680;50.764;6.120;2023-05-23T03:24:20;97167.25;;;-4.59;nan
79048;BME280;68680;50.764;6.120;2023-05-23T03:26:46;97171.72;;;-4.52;nan
79048;BME280;68680;50.764;6.120;2023-05-23T03:29:13;97168.88;;;-4.58;nan
79048;BME280;68680;50.764;6.120;2023-05-23T03:31:39;97181.25;;;-4.60;nan
79048;BME280;68680;50.764;6.120;2023-05-23T03:34:05;97176.56;;;-4.49;nan
79048;BME280;68680;50.764;6.120;2023-05-23T03:36:30;97178.97;;;-4.48;nan
79048;BME280;68680;50.764;6.120;2023-05-23T03:38:56;97184.97;;;-4.47;nan
79048;BME280;68680;50.764;6.120;2023-05-23T03:41:22;97182.13;;;-4.52;nan
79048;BME280;68680;50.764;6.120;2023-05-23T03:43:48;97187.31;;;-4.52;nan
79048;BME280;68680;50.764;6.120;2023-05-23T03:46:15;97182.50;;;-4.56;nan
79048;BME280;68680;50.764;6.120;2023-05-23T03:48:40;97180.41;;;-4.45;nan
79048;BME280;68680;50.764;6.120;2023-05-23T03:51:06;97184.13;;;-4.54;nan
79048;BME280;68680;50.764;6.120;2023-05-23T03:53:32;97183.59;;;-4.65;nan
79048;BME280;68680;50.764;6.120;2023-05-23T03:55:58;97179.13;;;-4.71;nan
79048;BME280;68680;50.764;6.120;2023-05-23T03:58:23;97190.19;;;-4.47;nan
79048;BME280;68680;50.764;6.120;2023-05-23T04:00:49;97189.03;;;-4.60;nan
79048;BME280;68680;50.764;6.120;2023-05-23T04:03:16;97191.16;;;-4.70;nan
79048;BME280;68680;50.764;6.120;2023-05-23T04:05:42;97197.97;;;-4.69;nan
79048;BME280;68680;50.764;6.120;2023-05-23T04:08:08;97196.28;;;-4.76;nan
79048;BME280;68680;50.764;6.120;2023-05-23T04:10:34;97192.69;;;-4.75;nan
79048;BME280;68680;50.764;6.120;2023-05-23T04:13:00;97198.69;;;-4.75;nan
79048;BME280;68680;50.764;6.120;2023-05-23T04:15:25;97205.34;;;-4.87;nan
79048;BME280;68680;50.764;6.120;2023-05-23T04:17:51;97194.22;;;-4.81;nan
79048;BME280;68680;50.764;6.120;2023-05-23T04:20:18;97210.56;;;-4.87;nan
79048;BME280;68680;50.764;6.120;2023-05-23T04:22:44;97205.13;;;-4.71;nan
79048;BME280;68680;50.764;6.120;2023-05-23T04:25:10;97215.66;;;-4.79;nan
79048;BME280;68680;50.764;6.120;2023-05-23T04:27:36;97210.56;;;-4.87;nan
79048;BME280;68680;50.764;6.120;2023-05-23T04:30:02;97219.16;;;-4.72;nan
79048;BME280;68680;50.764;6.120;2023-05-23T04:32:28;97213.06;;;-4.79;nan
79048;BME280;68680;50.764;6.120;2023-05-23T04:34:54;97220.59;;;-4.84;nan
79048;BME280;68680;50.764;6.120;2023-05-23T04:37:21;97220.22;;;-4.81;nan
79048;BME280;68680;50.764;6.120;2023-05-23T04:39:47;97222.66;;;-4.94;nan
79048;BME280;68680;50.764;6.120;2023-05-23T04:42:13;97225.63;;;-4.97;nan
79048;BME280;68680;50.764;6.120;2023-05-23T04:44:38;97235.66;;;-4.94;nan
79048;BME280;68680;50.764;6.120;2023-05-23T04:47:05;97229.84;;;-4.96;nan
79048;BME280;68680;50.764;6.120;2023-05-23T04:49:31;97220.06;;;-4.94;nan
79048;BME280;68680;50.764;6.120;2023-05-23T04:51:57;97207.69;;;-4.92;nan
79048;BME280;68680;50.764;6.120;2023-05-23T04:54:24;97214.50;;;-4.91;nan
79048;BME280;68680;50.764;6.120;2023-05-23T04:56:49;97206.97;;;-5.01;nan
79048;BME280;68680;50.764;6.120;2023-05-23T04:59:15;97205.19;;;-5.00;nan
79048;BME280;68680;50.764;6.120;2023-05-23T05:01:41;97206.81;;;-4.99;nan
79048;BME280;68680;50.764;6.120;2023-05-23T05:04:07;97209.31;;;-4.91;nan
79048;BME280;68680;50.764;6.120;2023-05-23T05:06:33;97224.91;;;-4.91;nan
79048;BME280;68680;50.764;6.120;2023-05-23T05:08:58;97221.66;;;-4.93;nan
79048;BME280;68680;50.764;6.120;2023-05-23T05:11:26;97208.94;;;-4.88;nan
79048;BME280;68680;50.764;6.120;2023-05-23T05:13:52;97223.91;;;-4.90;nan
79048;BME280;68680;50.764;6.120;2023-05-23T05:16:17;97225.06;;;-4.92;nan
79048;BME280;68680;50.764;6.120;2023-05-23T05:18:43;97224.53;;;-4.88;nan
79048;BME280;68680;50.764;6.120;2023-05-23T05:21:09;97228.09;;;-4.89;nan
79048;BME280;68680;50.764;6.120;2023-05-23T05:23:35;97228.22;;;-4.97;nan
79048;BME280;68680;50.764;6.120;2023-05-23T05:26:01;97226.53;;;-4.90;nan
79048;BME280;68680;50.764;6.120;2023-05-23T05:28:28;97232.06;;;-4.93;nan
79048;BME280;68680;50.764;6.120;2023-05-23T05:30:53;97233.69;;;-4.92;nan
79048;BME280;68680;50.764;6.120;2023-05-23T05:33:19;97228.56;;;-4.85;nan
79048;BME280;68680;50.764;6.120;2023-05-23T05:35:45;97237.00;;;-4.83;nan
79048;BME280;68680;50.764;6.120;2023-05-23T05:38:11;97237.44;;;-4.80;nan
79048;BME280;68680;50.764;6.120;2023-05-23T05:40:37;97239.06;;;-4.79;nan
79048;BME280;68680;50.764;6.120;2023-05-23T05:43:02;97243.88;;;-4.76;nan
79048;BME280;68680;50.764;6.120;2023-05-23T05:45:30;97244.97;;;-4.85;nan
79048;BME280;68680;50.764;6.120;2023-05-23T05:48:04;97246.22;;;-4.81;nan
79048;BME280;68680;50.764;6.120;2023-05-23T05:50:30;97246.59;;;-4.84;nan
79048;BME280;68680;50.764;6.120;2023-05-23T05:52:56;97248.56;;;-4.86;nan
79048;BME280;68680;50.764;6.120;2023-05-23T05:55:22;97248.19;;;-4.83;nan
79048;BME280;68680;50.764;6.120;2023-05-23T05:57:47;97238.50;;;-4.89;nan
79048;BME280;68680;50.764;6.120;2023-05-23T06:00:14;97237.25;;;-4.93;nan
79048;BME280;68680;50.764;6.120;2023-05-23T06:02:41;97248.91;;;-4.89;nan
79048;BME280;68680;50.764;6.120;2023-05-23T06:05:09;97247.31;;;-4.90;nan
79048;BME280;68680;50.764;6.120;2023-05-23T06:07:34;97249.00;;;-4.82;nan
79048;BME280;68680;50.764;6.120;2023-05-23T06:10:00;97250.59;;;-4.81;nan
79048;BME280;68680;50.764;6.120;2023-05-23T06:12:26;97243.88;;;-4.76;nan
79048;BME280;68680;50.764;6.120;2023-05-23T06:14:52;97259.47;;;-4.76;nan
79048;BME280;68680;50.764;6.120;2023-05-23T06:17:17;97254.00;;;-4.81;nan
79048;BME280;68680;50.764;6.120;2023-05-23T06:19:45;97255.38;;;-4.85;nan
79048;BME280;68680;50.764;6.120;2023-05-23T06:22:10;97266.28;;;-4.75;nan
79048;BME280;68680;50.764;6.120;2023-05-23T06:24:36;97266.94;;;-4.87;nan
79048;BME280;68680;50.764;6.120;2023-05-23T06:27:02;97268.09;;;-4.90;nan
79048;BME280;68680;50.764;6.120;2023-05-23T06:29:28;97267.38;;;-4.84;nan
79048;BME280;68680;50.764;6.120;2023-05-23T06:31:54;97272.03;;;-4.94;nan
79048;BME280;68680;50.764;6.120;2023-05-23T06:34:20;97266.94;;;-4.87;nan
79048;BME280;68680;50.764;6.120;2023-05-23T06:36:47;97275.53;;;-4.87;nan
79048;BME280;68680;50.764;6.120;2023-05-23T06:39:12;97278.31;;;-4.74;nan
79048;BME280;68680;50.764;6.120;2023-05-23T06:41:38;97269.78;;;-4.68;nan
79048;BME280;68680;50.764;6.120;2023-05-23T06:44:04;97281.59;;;-4.65;nan
79048;BME280;68680;50.764;6.120;2023-05-23T06:46:30;97279.94;;;-4.73;nan
79048;BME280;68680;50.764;6.120;2023-05-23T06:48:56;97284.22;;;-4.80;nan
79048;BME280;68680;50.764;6.120;2023-05-23T06:51:22;97282.34;;;-4.86;nan
79048;BME280;68680;50.764;6.120;2023-05-23T06:53:49;97280.84;;;-4.95;nan
79048;BME280;68680;50.764;6.120;2023-05-23T06:56:15;97294.25;;;-5.06;nan
79048;BME280;68680;50.764;6.120;2023-05-23T06:58:41;97294.63;;;-5.09;nan
79048;BME280;68680;50.764;6.120;2023-05-23T07:01:07;97287.81;;;-5.10;nan
79048;BME280;68680;50.764;6.120;2023-05-23T07:03:32;97294.63;;;-5.09;nan
79048;BME280;68680;50.764;6.120;2023-05-23T07:05:58;97303.06;;;-5.07;nan
79048;BME280;68680;50.764;6.120;2023-05-23T07:08:24;97298.41;;;-4.97;nan
79048;BME280;68680;50.764;6.120;2023-05-23T07:10:51;97298.75;;;-5.00;nan
79048;BME280;68680;50.764;6.120;2023-05-23T07:13:17;97306.91;;;-5.03;nan
79048;BME280;68680;50.764;6.120;2023-05-23T07:15:43;97304.66;;;-5.06;nan
79048;BME280;68680;50.764;6.120;2023-05-23T07:18:08;97309.06;;;-5.07;nan
79048;BME280;68680;50.764;6.120;2023-05-23T07:20:34;97315.59;;;-4.96;nan
79048;BME280;68680;50.764;6.120;2023-05-23T07:23:00;97317.22;;;-4.95;nan
79048;BME280;68680;50.764;6.120;2023-05-23T07:25:26;97317.56;;;-4.98;nan
79048;BME280;68680;50.764;6.120;2023-05-23T07:27:53;97309.13;;;-5.00;nan
79048;BME280;68680;50.764;6.120;2023-05-23T07:30:19;97300.34;;;-4.99;nan
79048;BME280;68680;50.764;6.120;2023-05-23T07:32:45;97309.31;;;-4.87;nan
79048;BME280;68680;50.764;6.120;2023-05-23T07:35:10;97314.19;;;-4.84;nan
79048;BME280;68680;50.764;6.120;2023-05-23T07:37:36;97318.47;;;-4.91;nan
79048;BME280;68680;50.764;6.120;2023-05-23T07:40:03;97315.50;;;-5.03;nan
79048;BME280;68680;50.764;6.120;2023-05-23T07:42:29;97310.03;;;-4.93;nan
79048;BME280;68680;50.764;6.120;2023-05-23T07:44:56;97320.97;;;-4.98;nan
79048;BME280;68680;50.764;6.120;2023-05-23T07:47:22;97327.97;;;-4.98;nan
79048;BME280;68680;50.764;6.120;2023-05-23T07:49:48;97321.06;;;-5.06;nan
79048;BME280;68680;50.764;6.120;2023-05-23T07:52:13;97328.03;;;-5.06;nan
79048;BME280;68680;50.764;6.120;2023-05-23T07:54:39;97323.56;;;-4.98;nan
79048;BME280;68680;50.764;6.120;2023-05-23T07:57:05;97324.59;;;-4.84;nan
79048;BME280;68680;50.764;6.120;2023-05-23T07:59:31;97332.97;;;-4.82;nan
79048;BME280;68680;50.764;6.120;2023-05-23T08:01:58;97332.19;;;-4.97;nan
79048;BME280;68680;50.764;6.120;2023-05-23T08:04:23;97325.81;;;-4.80;nan
79048;BME280;68680;50.764;6.120;2023-05-23T08:06:49;97327.69;;;-4.88;nan
79048;BME280;68680;50.764;6.120;2023-05-23T08:09:15;97328.50;;;-4.88;nan
79048;BME280;68680;50.764;6.120;2023-05-23T08:11:41;97332.19;;;-4.82;nan
79048;BME280;68680;50.764;6.120;2023-05-23T08:14:06;97333.06;;;-4.75;nan
79048;BME280;68680;50.764;6.120;2023-05-23T08:16:34;97330.50;;;-4.61;nan
79048;BME280;68680;50.764;6.120;2023-05-23T08:19:01;97325.28;;;-4.61;nan
79048;BME280;68680;50.764;6.120;2023-05-23T08:21:27;97329.94;;;-4.71;nan
79048;BME280;68680;50.764;6.120;2023-05-23T08:23:53;97328.34;;;-4.72;nan
79048;BME280;68680;50.764;6.120;2023-05-23T08:26:18;97327.78;;;-4.82;nan
79048;BME280;68680;50.764;6.120;2023-05-23T08:28:45;97338.19;;;-4.82;nan
79048;BME280;68680;50.764;6.120;2023-05-23T08:31:11;97335.59;;;-4.97;nan
79048;BME280;68680;50.764;6.120;2023-05-23T08:33:36;97341.66;;;-5.04;nan
79048;BME280;68680;50.764;6.120;2023-05-23T08:36:04;97340.50;;;-4.87;nan
79048;BME280;68680;50.764;6.120;2023-05-23T08:38:30;97345.88;;;-5.03;nan
79048;BME280;68680;50.764;6.120;2023-05-23T08:41:01;97346.53;;;-5.01;nan
79048;BME280;68680;50.764;6.120;2023-05-23T08:43:27;97347.75;;;-5.12;nan
79048;BME280;68680;50.764;6.120;2023-05-23T08:45:53;97344.44;;;-5.20;nan
79048;BME280;68680;50.764;6.120;2023-05-23T08:48:19;97358.25;;;-5.05;nan
79048;BME280;68680;50.764;6.120;2023-05-23T08:50:47;97346.50;;;-5.16;nan
79048;BME280;68680;50.764;6.120;2023-05-23T08:53:16;97363.44;;;-5.05;nan
79048;BME280;68680;50.764;6.120;2023-05-23T08:55:42;97363.44;;;-5.05;nan
79048;BME280;68680;50.764;6.120;2023-05-23T08:58:08;97366.19;;;-4.84;nan
79048;BME280;68680;50.764;6.120;2023-05-23T09:00:34;97372.72;;;-4.59;nan
79048;BME280;68680;50.764;6.120;2023-05-23T09:03:00;97366.53;;;-4.58;nan
79048;BME280;68680;50.764;6.120;2023-05-23T09:05:25;97366.72;;;-4.44;nan
79048;BME280;68680;50.764;6.120;2023-05-23T09:07:52;97359.69;;;-4.29;nan
79048;BME280;68680;50.764;6.120;2023-05-23T09:10:19;97380.78;;;-4.39;nan
79048;BME280;68680;50.764;6.120;2023-05-23T09:12:45;97379.25;;;-4.63;nan
79048;BME280;68680;50.764;6.120;2023-05-23T09:15:11;97372.97;;;-4.83;nan
79048;BME280;68680;50.764;6.120;2023-05-23T09:17:37;97375.13;;;-5.01;nan
79048;BME280;68680;50.764;6.120;2023-05-23T09:20:10;97369.00;;;-5.08;nan
79048;BME280;68680;50.764;6.120;2023-05-23T09:22:36;97371.31;;;-5.13;nan
79048;BME280;68680;50.764;6.120;2023-05-23T09:25:02;97390.00;;;-4.95;nan
79048;BME280;68680;50.764;6.120;2023-05-23T09:28:02;97386.41;;;-4.94;nan
79048;BME280;68680;50.764;6.120;2023-05-23T09:30:57;97380.50;;;-4.88;nan
79048;BME280;68680;50.764;6.120;2023-05-23T09:33:33;97386.06;;;-4.91;nan
79048;BME280;68680;50.764;6.120;2023-05-23T09:35:59;97389.94;;;-4.72;nan
79048;BME280;68680;50.764;6.120;2023-05-23T09:38:27;97390.56;;;-4.56;nan
79048;BME280;68680;50.764;6.120;2023-05-23T09:40:54;97393.63;;;-4.37;nan
79048;BME280;68680;50.764;6.120;2023-05-23T09:43:28;97393.06;;;-4.47;nan
79048;BME280;68680;50.764;6.120;2023-05-23T09:45:53;97388.75;;;-4.70;nan
79048;BME280;68680;50.764;6.120;2023-05-23T09:48:19;97390.00;;;-4.95;nan
79048;BME280;68680;50.764;6.120;2023-05-23T09:50:52;97387.31;;;-4.58;nan
79048;BME280;68680;50.764;6.120;2023-05-23T09:53:18;97395.22;;;-4.36;nan
79048;BME280;68680;50.764;6.120;2023-05-23T09:55:43;97398.09;;;-4.31;nan
79048;BME280;68680;50.764;6.120;2023-05-23T09:58:10;97397.34;;;-4.10;nan
79048;BME280;68680;50.764;6.120;2023-05-23T10:00:39;97402.16;;;-3.93;nan
79048;BME280;68680;50.764;6.120;2023-05-23T10:03:10;97401.44;;;-3.87;nan
79048;BME280;68680;50.764;6.120;2023-05-23T10:05:42;97405.06;;;-4.17;nan
79048;BME280;68680;50.764;6.120;2023-05-23T10:08:13;97410.09;;;-4.30;nan
79048;BME280;68680;50.764;6.120;2023-05-23T10:14:00;97416.09;;;-4.74;nan
79048;BME280;68680;50.764;6.120;2023-05-23T10:16:39;97414.00;;;-4.93;nan
79048;BME280;68680;50.764;6.120;2023-05-23T10:19:17;97419.41;;;-4.80;nan
79048;BME280;68680;50.764;6.120;2023-05-23T10:21:50;97418.91;;;-4.61;nan
79048;BME280;68680;50.764;6.120;2023-05-23T10:24:21;97418.72;;;-4.44;nan
79048;BME280;68680;50.764;6.120;2023-05-23T10:26:47;97422.31;;;-4.16;nan
79048;BME280;68680;50.764;6.120;2023-05-23T10:29:13;97420.06;;;-3.68;nan
79048;BME280;68680;50.764;6.120;2023-05-23T10:31:40;97418.81;;;-3.73;nan
79048;BME280;68680;50.764;6.120;2023-05-23T10:34:17;97417.47;;;-3.47;nan
79048;BME280;68680;50.764;6.120;2023-05-23T10:36:56;97422.81;;;-3.34;nan
79048;BME280;68680;50.764;6.120;2023-05-23T10:39:36;97424.78;;;-3.36;nan
79048;BME280;68680;50.764;6.120;2023-05-23T10:42:14;97424.44;;;-3.33;nan
79048;BME280;68680;50.764;6.120;2023-05-23T10:44:41;97418.34;;;-3.40;nan
79048;BME280;68680;50.764;6.120;2023-05-23T10:47:08;97415.63;;;-3.32;nan
79048;BME280;68680;50.764;6.120;2023-05-23T10:49:39;97428.25;;;-3.08;nan
79048;BME280;68680;50.764;6.120;2023-05-23T10:52:07;97431.50;;;-3.06;nan
79048;BME280;68680;50.764;6.120;2023-05-23T10:54:34;97424.66;;;-3.07;nan
79048;BME280;68680;50.764;6.120;2023-05-23T10:57:04;97417.13;;;-2.95;nan
79048;BME280;68680;50.764;6.120;2023-05-23T10:59:31;97418.19;;;-2.90;nan
79048;BME280;68680;50.764;6.120;2023-05-23T11:01:58;97416.44;;;-2.82;nan
79048;BME280;68680;50.764;6.120;2023-05-23T11:04:27;97422.00;;;-2.92;nan
79048;BME280;68680;50.764;6.120;2023-05-23T11:06:54;97426.22;;;-2.63;nan
79048;BME280;68680;50.764;6.120;2023-05-23T11:09:20;97431.69;;;-2.58;nan
79048;BME280;68680;50.764;6.120;2023-05-23T11:11:54;97426.47;;;-2.79;nan
79048;BME280;68680;50.764;6.120;2023-05-23T11:14:32;97424.78;;;-2.94;nan
79048;BME280;68680;50.764;6.120;2023-05-23T11:16:59;97421.81;;;-3.12;nan
79048;BME280;68680;50.764;6.120;2023-05-23T11:19:27;97429.88;;;-3.07;nan
79048;BME280;68680;50.764;6.120;2023-05-23T11:21:57;97425.03;;;-3.52;nan
79048;BME280;68680;50.764;6.120;2023-05-23T11:24:47;97426.09;;;-3.68;nan
79048;BME280;68680;50.764;6.120;2023-05-23T11:27:13;97421.53;;;-3.81;nan
79048;BME280;68680;50.764;6.120;2023-05-23T11:29:39;97421.16;;;-3.78;nan
79048;BME280;68680;50.764;6.120;2023-05-23T11:32:10;97432.59;;;-3.57;nan
79048;BME280;68680;50.764;6.120;2023-05-23T11:34:38;97436.59;;;-3.19;nan
79048;BME280;68680;50.764;6.120;2023-05-23T11:37:04;97431.75;;;-3.22;nan
79048;BME280;68680;50.764;6.120;2023-05-23T11:39:30;97430.50;;;-3.26;nan
79048;BME280;68680;50.764;6.120;2023-05-23T11:41:59;97436.34;;;-3.45;nan
79048;BME280;68680;50.764;6.120;2023-05-23T11:44:25;97430.75;;;-3.42;nan
79048;BME280;68680;50.764;6.120;2023-05-23T11:46:59;97429.13;;;-3.43;nan
79048;BME280;68680;50.764;6.120;2023-05-23T11:49:28;97442.56;;;-3.61;nan
79048;BME280;68680;50.764;6.120;2023-05-23T11:51:57;97432.72;;;-3.65;nan
79048;BME280;68680;50.764;6.120;2023-05-23T11:54:24;97435.84;;;-3.55;nan
79048;BME280;68680;50.764;6.120;2023-05-23T11:56:53;97432.59;;;-3.57;nan
79048;BME280;68680;50.764;6.120;2023-05-23T11:59:20;97434.38;;;-3.22;nan
79048;BME280;68680;50.764;6.120;2023-05-23T12:01:46;97439.19;;;-3.40;nan
79048;BME280;68680;50.764;6.120;2023-05-23T12:04:12;97440.91;;;-3.68;nan
79048;BME280;68680;50.764;6.120;2023-05-23T12:06:39;97445.00;;;-3.59;nan
79048;BME280;68680;50.764;6.120;2023-05-23T12:09:07;97438.31;;;-3.47;nan
79048;BME280;68680;50.764;6.120;2023-05-23T12:11:35;97444.25;;;-3.53;nan
79048;BME280;68680;50.764;6.120;2023-05-23T12:14:02;97444.91;;;-3.30;nan
79048;BME280;68680;50.764;6.120;2023-05-23T12:16:28;97442.69;;;-3.12;nan
79048;BME280;68680;50.764;6.120;2023-05-23T12:18:54;97437.97;;;-3.23;nan
79048;BME280;68680;50.764;6.120;2023-05-23T12:21:20;97436.03;;;-3.36;nan
79048;BME280;68680;50.764;6.120;2023-05-23T12:23:49;97436.84;;;-3.35;nan
79048;BME280;68680;50.764;6.120;2023-05-23T12:26:16;97434.84;;;-3.12;nan
79048;BME280;68680;50.764;6.120;2023-05-23T12:28:44;97438.81;;;-2.95;nan
79048;BME280;68680;50.764;6.120;2023-05-23T12:31:11;97441.81;;;-3.19;nan
79048;BME280;68680;50.764;6.120;2023-05-23T12:33:38;97438.34;;;-3.05;nan
79048;BME280;68680;50.764;6.120;2023-05-23T12:36:05;97439.44;;;-3.35;nan
79048;BME280;68680;50.764;6.120;2023-05-23T12:38:32;97434.72;;;-3.25;nan
79048;BME280;68680;50.764;6.120;2023-05-23T12:41:09;97432.59;;;-3.57;nan
79048;BME280;68680;50.764;6.120;2023-05-23T12:43:38;97440.25;;;-3.35;nan
79048;BME280;68680;50.764;6.120;2023-05-23T12:46:04;97446.28;;;-3.13;nan
79048;BME280;68680;50.764;6.120;2023-05-23T12:48:34;97441.94;;;-3.06;nan
79048;BME280;68680;50.764;6.120;2023-05-23T12:51:00;97436.31;;;-3.03;nan
79048;BME280;68680;50.764;6.120;2023-05-23T12:53:26;97442.84;;;-2.92;nan
79048;BME280;68680;50.764;6.120;2023-05-23T12:55:52;97444.50;;;-2.29;nan
79048;BME280;68680;50.764;6.120;2023-05-23T12:58:17;97436.13;;;-2.18;nan
79048;BME280;68680;50.764;6.120;2023-05-23T13:00:44;97446.63;;;-1.57;nan
79048;BME280;68680;50.764;6.120;2023-05-23T13:03:10;97438.56;;;-1.62;nan
79048;BME280;68680;50.764;6.120;2023-05-23T13:05:37;97447.53;;;-1.84;nan
79048;BME280;68680;50.764;6.120;2023-05-23T13:08:03;97438.03;;;-2.33;nan
79048;BME280;68680;50.764;6.120;2023-05-23T13:10:29;97446.91;;;-2.34;nan
79048;BME280;68680;50.764;6.120;2023-05-23T13:12:54;97443.75;;;-2.23;nan
79048;BME280;68680;50.764;6.120;2023-05-23T13:15:20;97443.13;;;-2.25;nan
79048;BME280;68680;50.764;6.120;2023-05-23T13:17:47;97445.22;;;-1.66;nan
79048;BME280;68680;50.764;6.120;2023-05-23T13:20:13;97445.75;;;-1.03;nan
79048;BME280;68680;50.764;6.120;2023-05-23T13:22:39;97448.19;;;-0.56;nan
79048;BME280;68680;50.764;6.120;2023-05-23T13:25:06;97455.41;;;-0.25;nan